Time;durP1;ratioP1;P1;durP2;ratioP2;P2;SDS_P1;SDS_P2;PMS_P1;PMS_P2;Temp;Humidity;BMP_temperature;BMP_pressure;BME280_temperature;BME280_humidity;BME280_pressure;Samples;Min_cycle;Max_cycle;Signal;HPM_P1;HPM_P2
2022/03/08 00:00:30;;;;;;;21.60;10.30;;;0.80;91.90;;;;;;4825192;29;20069;-90
2022/03/08 00:02:57;;;;;;;22.98;9.95;;;1.20;89.40;;;;;;4809134;29;20054;-90
2022/03/08 00:05:23;;;;;;;19.67;10.03;;;2.70;73.50;;;;;;4808752;29;20094;-89
2022/03/08 00:07:50;;;;;;;18.73;9.47;;;2.50;79.40;;;;;;4824909;29;20077;-90
2022/03/08 00:10:17;;;;;;;21.23;9.63;;;1.30;65.00;;;;;;4825066;29;20544;-90
2022/03/08 00:12:43;;;;;;;16.20;9.00;;;1.60;72.60;;;;;;4809458;29;20054;-89
2022/03/08 00:15:12;;;;;;;18.47;9.33;;;2.50;91.10;;;;;;4809400;29;20058;-90
2022/03/08 00:17:38;;;;;;;19.40;9.70;;;-0.20;76.70;;;;;;4808564;29;20149;-90
2022/03/08 00:20:09;;;;;;;20.00;10.07;;;0.80;84.80;;;;;;4825127;29;20057;-89
2022/03/08 00:22:36;;;;;;;17.30;8.87;;;-0.30;67.20;;;;;;4825627;29;20087;-89
2022/03/08 00:25:07;;;;;;;17.42;9.18;;;0.50;76.60;;;;;;4824878;29;20062;-90
2022/03/08 00:27:34;;;;;;;19.80;9.73;;;;;;;;;;4825197;29;20236;-90
2022/03/08 00:30:00;;;;;;;21.93;10.57;;;;;;;;;;4808317;29;20085;-89
2022/03/08 00:32:26;;;;;;;17.73;8.83;;;-0.40;56.90;;;;;;4823596;29;20137;-90
2022/03/08 00:34:52;;;;;;;19.50;9.90;;;-1.60;80.90;;;;;;4824244;29;20184;-90
2022/03/08 00:37:18;;;;;;;20.87;9.63;;;-0.80;69.10;;;;;;4808556;29;20047;-90
2022/03/08 00:39:44;;;;;;;22.10;11.23;;;-1.00;90.10;;;;;;4808347;29;20047;-92
2022/03/08 00:42:11;;;;;;;16.20;9.03;;;-2.00;77.90;;;;;;4807854;29;20054;-90
2022/03/08 00:44:42;;;;;;;19.08;9.63;;;-0.90;69.20;;;;;;4824561;29;20058;-91
2022/03/08 00:47:09;;;;;;;18.23;9.70;;;-0.70;92.50;;;;;;4822674;29;20050;-91
2022/03/08 00:49:35;;;;;;;18.00;9.60;;;-0.60;71.20;;;;;;4824280;29;20058;-91
2022/03/08 00:52:01;;;;;;;19.13;9.73;;;-1.70;89.60;;;;;;4824325;29;20053;-91
2022/03/08 00:54:27;;;;;;;19.13;10.47;;;-0.80;66.90;;;;;;4808645;29;20406;-91
2022/03/08 00:56:53;;;;;;;19.80;10.43;;;0.90;90.70;;;;;;4823954;29;20050;-91
2022/03/08 00:59:19;;;;;;;18.07;9.33;;;;;;;;;;4824697;29;20078;-91
2022/03/08 01:01:45;;;;;;;20.43;10.70;;;-0.80;72.20;;;;;;4807897;29;20054;-91
2022/03/08 01:04:11;;;;;;;22.30;10.23;;;-0.60;82.80;;;;;;4792561;29;20053;-91
2022/03/08 01:06:36;;;;;;;24.03;9.90;;;0.60;84.30;;;;;;4807594;29;20050;-91
2022/03/08 01:09:03;;;;;;;17.50;9.23;;;-1.00;80.10;;;;;;4807118;29;20066;-91
2022/03/08 01:11:29;;;;;;;16.93;9.47;;;-1.10;85.00;;;;;;4824741;29;20056;-91
2022/03/08 01:13:55;;;;;;;19.77;10.00;;;-1.60;92.00;;;;;;4808049;29;20054;-91
2022/03/08 01:16:21;;;;;;;17.97;9.80;;;-0.90;78.90;;;;;;4823653;29;20050;-91
2022/03/08 01:18:48;;;;;;;18.93;9.57;;;1.40;84.00;;;;;;4824617;29;20533;-91
2022/03/08 01:21:14;;;;;;;19.73;9.47;;;;;;;;;;4824725;29;20621;-90
2022/03/08 01:23:41;;;;;;;20.77;9.97;;;-0.50;91.90;;;;;;4824619;29;20059;-90
2022/03/08 01:26:07;;;;;;;17.10;9.10;;;0.50;96.80;;;;;;4792485;29;20062;-90
2022/03/08 01:28:34;;;;;;;18.87;9.33;;;-0.10;86.40;;;;;;4807955;29;20111;-89
2022/03/08 01:31:00;;;;;;;19.60;9.67;;;-0.10;99.90;;;;;;4806828;29;20063;-90
2022/03/08 01:33:26;;;;;;;22.13;9.73;;;0.50;93.00;;;;;;4823858;29;20060;-90
2022/03/08 01:35:52;;;;;;;18.63;9.90;;;-1.30;95.60;;;;;;4820856;29;20200;-90
2022/03/08 01:38:17;;;;;;;16.77;8.70;;;-0.80;79.80;;;;;;4807142;29;20050;-90
2022/03/08 01:40:43;;;;;;;17.53;10.03;;;-2.10;73.00;;;;;;4824005;29;20054;-91
2022/03/08 01:43:09;;;;;;;17.53;9.63;;;-2.40;99.90;;;;;;4823522;29;20130;-91
2022/03/08 01:45:35;;;;;;;18.20;9.13;;;-0.80;93.00;;;;;;4822324;29;20472;-90
2022/03/08 01:48:01;;;;;;;19.60;9.63;;;-1.00;95.20;;;;;;4823368;29;20420;-91
2022/03/08 01:50:27;;;;;;;18.60;9.27;;;1.90;93.20;;;;;;4823509;29;20146;-91
2022/03/08 01:52:53;;;;;;;20.53;9.93;;;0.10;90.50;;;;;;4823166;29;20175;-90
2022/03/08 01:55:20;;;;;;;16.07;9.13;;;-0.90;92.50;;;;;;4822848;29;20054;-90
2022/03/08 01:57:48;;;;;;;21.13;10.47;;;-2.60;93.70;;;;;;4792064;29;20061;-91
2022/03/08 02:00:17;;;;;;;17.67;10.65;;;-0.70;99.90;;;;;;4821318;29;20062;-91
2022/03/08 02:02:43;;;;;;;18.13;9.60;;;-0.80;99.90;;;;;;4806832;29;20050;-90
2022/03/08 02:05:09;;;;;;;16.30;8.97;;;0.20;99.90;;;;;;4806450;29;20050;-91
2022/03/08 02:07:35;;;;;;;20.60;9.73;;;-1.00;97.60;;;;;;4823413;29;20058;-91
2022/03/08 02:10:01;;;;;;;20.73;10.47;;;-1.10;93.90;;;;;;4823075;29;20174;-91
2022/03/08 02:12:27;;;;;;;20.03;9.90;;;;;;;;;;4792035;29;20054;-90
2022/03/08 02:14:53;;;;;;;16.87;9.83;;;-0.90;85.80;;;;;;4822263;29;20050;-91
2022/03/08 02:17:19;;;;;;;16.87;10.00;;;0.00;96.10;;;;;;4805860;29;20076;-91
2022/03/08 02:19:45;;;;;;;24.23;11.13;;;;;;;;;;4821778;29;20142;-90
2022/03/08 02:22:10;;;;;;;18.80;10.27;;;-0.90;96.50;;;;;;4806224;29;20058;-90
2022/03/08 02:24:36;;;;;;;20.30;10.10;;;1.50;99.90;;;;;;4806600;29;20384;-90
2022/03/08 02:27:02;;;;;;;22.17;10.23;;;;;;;;;;4805762;29;20064;-91
2022/03/08 02:29:28;;;;;;;17.83;9.70;;;-0.90;99.90;;;;;;4806730;29;20090;-91
2022/03/08 02:31:56;;;;;;;22.93;11.10;;;-0.50;99.90;;;;;;4806192;29;20097;-91
2022/03/08 02:34:22;;;;;;;23.00;10.77;;;;;;;;;;4822493;29;20049;-90
2022/03/08 02:37:08;;;;;;;19.50;10.30;;;-0.90;99.90;;;;;;4806203;29;20050;-90
2022/03/08 02:39:35;;;;;;;19.77;10.77;;;-0.90;99.90;;;;;;4806033;29;20054;-90
2022/03/08 02:42:01;;;;;;;20.33;10.17;;;-0.90;99.90;;;;;;4791555;29;20054;-90
2022/03/08 02:44:27;;;;;;;21.43;9.90;;;-0.70;99.90;;;;;;4822486;29;20139;-91
2022/03/08 02:46:54;;;;;;;19.27;9.83;;;0.50;99.90;;;;;;4822887;29;20057;-90
2022/03/08 02:49:19;;;;;;;21.37;9.50;;;-0.40;99.90;;;;;;4821115;29;20051;-91
2022/03/08 02:51:46;;;;;;;19.50;9.93;;;0.20;98.40;;;;;;4806579;29;20119;-91
2022/03/08 02:54:12;;;;;;;23.00;10.73;;;;;;;;;;4805781;29;20081;-91
2022/03/08 02:56:38;;;;;;;20.33;10.53;;;-1.00;91.40;;;;;;4821219;29;20050;-91
2022/03/08 02:59:04;;;;;;;20.03;10.70;;;;;;;;;;4822739;29;20118;-91
2022/03/08 03:01:30;;;;;;;21.07;10.37;;;-1.10;90.70;;;;;;4822210;29;20046;-91
2022/03/08 03:03:56;;;;;;;18.87;10.33;;;0.40;92.20;;;;;;4822350;29;20552;-91
2022/03/08 03:06:22;;;;;;;20.67;10.87;;;-0.40;91.60;;;;;;4820280;29;20050;-90
2022/03/08 03:08:47;;;;;;;24.07;9.90;;;-0.10;91.30;;;;;;4806078;29;20054;-91
2022/03/08 03:11:13;;;;;;;20.03;11.00;;;0.70;91.20;;;;;;4821001;29;20054;-91
2022/03/08 03:13:39;;;;;;;19.40;10.57;;;1.20;91.90;;;;;;4820931;29;20055;-90
2022/03/08 03:16:05;;;;;;;19.73;10.10;;;-0.90;94.60;;;;;;4805827;29;20073;-90
2022/03/08 03:18:31;;;;;;;25.67;12.07;;;-1.00;97.00;;;;;;4805748;29;20061;-91
2022/03/08 03:20:56;;;;;;;22.70;11.23;;;1.10;96.10;;;;;;4822103;29;20492;-92
2022/03/08 03:23:22;;;;;;;20.13;11.23;;;0.20;99.90;;;;;;4805735;29;20077;-90
2022/03/08 03:25:48;;;;;;;19.07;10.13;;;-0.10;99.90;;;;;;4805882;29;20062;-90
2022/03/08 03:28:14;;;;;;;22.43;10.93;;;-0.80;99.90;;;;;;4805525;29;20058;-89
2022/03/08 03:30:40;;;;;;;22.00;11.80;;;;;;;;;;4820659;29;20073;-90
2022/03/08 03:33:05;;;;;;;23.70;12.37;;;-2.40;99.90;;;;;;4800009;29;20058;-90
2022/03/08 03:35:31;;;;;;;26.27;12.33;;;1.40;99.90;;;;;;4790269;29;20237;-90
2022/03/08 03:37:57;;;;;;;21.00;11.63;;;;;;;;;;4805989;29;20050;-90
2022/03/08 03:40:23;;;;;;;29.73;12.73;;;0.00;99.90;;;;;;4805731;29;20058;-90
2022/03/08 03:42:49;;;;;;;26.33;13.13;;;-0.90;99.90;;;;;;4820832;29;20118;-90
2022/03/08 03:45:15;;;;;;;25.07;12.83;;;-1.20;99.90;;;;;;4820527;29;20133;-90
2022/03/08 03:47:41;;;;;;;23.87;13.37;;;1.50;99.90;;;;;;4791175;29;20042;-90
2022/03/08 03:50:08;;;;;;;24.13;13.87;;;1.40;99.90;;;;;;4822122;29;20046;-91
2022/03/08 03:52:34;;;;;;;25.50;13.93;;;0.30;99.90;;;;;;4821878;29;20057;-90
2022/03/08 03:55:00;;;;;;;27.67;13.67;;;;;;;;;;4822005;29;20054;-90
2022/03/08 03:57:26;;;;;;;25.60;13.37;;;;;;;;;;4821555;29;20450;-91
2022/03/08 03:59:52;;;;;;;23.23;13.57;;;-0.80;99.90;;;;;;4805715;29;20046;-90
2022/03/08 04:02:18;;;;;;;26.23;13.33;;;0.70;99.90;;;;;;4805048;29;20515;-90
2022/03/08 04:04:44;;;;;;;25.50;13.50;;;0.10;99.90;;;;;;4820490;29;20057;-91
2022/03/08 04:07:09;;;;;;;23.57;13.13;;;-0.90;99.90;;;;;;4815533;29;20054;-90
2022/03/08 04:09:35;;;;;;;22.57;12.53;;;;;;;;;;4805460;29;20062;-90
2022/03/08 04:12:01;;;;;;;24.87;13.17;;;-1.00;99.90;;;;;;4805175;29;20496;-90
2022/03/08 04:14:27;;;;;;;24.50;13.13;;;-1.10;99.90;;;;;;4821822;29;20050;-90
2022/03/08 04:16:53;;;;;;;25.90;12.70;;;-1.20;99.90;;;;;;4820634;29;20350;-90
2022/03/08 04:19:19;;;;;;;29.53;13.43;;;-1.20;99.90;;;;;;4820930;29;20200;-90
2022/03/08 04:21:45;;;;;;;25.63;12.87;;;;;;;;;;4805683;29;20480;-91
2022/03/08 04:24:11;;;;;;;31.13;13.30;;;-2.10;99.90;;;;;;4820577;29;20133;-90
2022/03/08 04:26:37;;;;;;;26.17;13.37;;;-0.30;99.90;;;;;;4804394;29;20138;-91
2022/03/08 04:29:03;;;;;;;29.97;13.90;;;-0.30;99.90;;;;;;4804546;29;20055;-91
2022/03/08 04:31:29;;;;;;;22.93;12.83;;;0.00;99.90;;;;;;4821254;29;20058;-91
2022/03/08 04:33:55;;;;;;;27.20;13.33;;;-3.30;99.90;;;;;;4821449;29;20055;-91
2022/03/08 04:36:21;;;;;;;24.93;13.03;;;;;;;;;;4821380;29;20065;-90
2022/03/08 04:38:47;;;;;;;36.90;14.50;;;-1.40;99.90;;;;;;4821512;29;20531;-90
2022/03/08 04:41:12;;;;;;;24.63;13.53;;;-1.60;99.90;;;;;;4789714;29;20058;-91
2022/03/08 04:43:38;;;;;;;30.73;14.33;;;0.00;99.90;;;;;;4805688;29;20084;-91
2022/03/08 04:46:04;;;;;;;26.53;14.30;;;-1.70;99.90;;;;;;4807941;29;20046;-90
2022/03/08 04:48:29;;;;;;;26.53;14.33;;;0.20;99.90;;;;;;4824154;29;20057;-90
2022/03/08 04:50:55;;;;;;;28.40;13.43;;;-1.60;99.90;;;;;;4809133;29;20053;-90
2022/03/08 04:53:21;;;;;;;28.50;14.97;;;-3.10;99.90;;;;;;4825178;29;20069;-91
2022/03/08 04:55:47;;;;;;;26.03;13.97;;;;;;;;;;4793817;29;20054;-91
2022/03/08 04:58:13;;;;;;;25.77;14.43;;;-2.20;99.90;;;;;;4808778;29;20046;-91
2022/03/08 05:00:38;;;;;;;26.00;14.23;;;-1.60;99.90;;;;;;4823168;29;20119;-90
2022/03/08 05:03:05;;;;;;;26.33;13.70;;;;;;;;;;4809239;29;20042;-91
2022/03/08 05:05:33;;;;;;;26.17;14.60;;;-1.60;99.90;;;;;;4808213;29;20438;-90
2022/03/08 05:07:59;;;;;;;26.30;14.47;;;-1.70;99.90;;;;;;4809114;29;20050;-91
2022/03/08 05:10:25;;;;;;;29.13;15.50;;;-1.70;99.90;;;;;;4824952;29;20050;-90
2022/03/08 05:12:52;;;;;;;31.00;16.00;;;0.90;99.90;;;;;;4809082;29;20106;-91
2022/03/08 05:15:18;;;;;;;26.77;14.47;;;-2.40;99.90;;;;;;4809045;29;20126;-91
2022/03/08 05:17:43;;;;;;;26.70;14.57;;;0.50;99.90;;;;;;4825819;29;20137;-90
2022/03/08 05:20:10;;;;;;;29.27;15.67;;;0.40;99.90;;;;;;4809234;29;20050;-91
2022/03/08 05:22:36;;;;;;;29.87;15.37;;;-2.60;99.90;;;;;;4824158;29;20150;-90
2022/03/08 05:25:03;;;;;;;28.07;15.00;;;1.20;99.90;;;;;;4825103;29;20058;-91
2022/03/08 05:27:29;;;;;;;29.25;15.52;;;-1.60;99.90;;;;;;4824275;29;20066;-90
2022/03/08 05:29:54;;;;;;;30.30;16.20;;;-1.60;99.90;;;;;;4792875;29;20058;-92
2022/03/08 05:32:20;;;;;;;31.47;15.67;;;-1.70;99.90;;;;;;4791362;29;20063;-92
2022/03/08 05:34:46;;;;;;;28.73;15.13;;;-1.70;99.90;;;;;;4805738;29;20127;-92
2022/03/08 05:37:12;;;;;;;30.77;17.03;;;0.50;99.90;;;;;;4789865;29;20435;-92
2022/03/08 05:39:38;;;;;;;27.63;16.07;;;1.00;99.90;;;;;;4804890;29;20055;-92
2022/03/08 05:42:04;;;;;;;28.63;15.87;;;0.50;99.90;;;;;;4805893;29;20051;-92
2022/03/08 05:44:30;;;;;;;34.10;17.83;;;-1.90;99.90;;;;;;4790039;29;20481;-91
2022/03/08 05:46:56;;;;;;;33.63;18.53;;;-0.40;99.90;;;;;;4791057;29;20137;-92
2022/03/08 05:49:22;;;;;;;29.77;16.07;;;-0.60;99.90;;;;;;4775594;29;20086;-91
2022/03/08 05:51:48;;;;;;;32.30;18.40;;;-2.80;99.90;;;;;;4806648;29;20063;-91
2022/03/08 05:54:15;;;;;;;32.87;18.87;;;;;;;;;;4790774;29;20051;-92
2022/03/08 05:56:40;;;;;;;33.10;19.00;;;-0.40;99.90;;;;;;4790125;29;20091;-92
2022/03/08 05:59:06;;;;;;;33.03;18.33;;;-1.30;99.90;;;;;;4790310;29;20059;-92
2022/03/08 06:01:32;;;;;;;35.47;18.10;;;;;;;;;;4805366;29;20063;-93
2022/03/08 06:03:58;;;;;;;31.43;18.30;;;;;;;;;;4791062;29;20054;-92
2022/03/08 06:06:24;;;;;;;32.20;18.33;;;-1.40;99.90;;;;;;4790316;29;20509;-92
2022/03/08 06:08:50;;;;;;;38.50;19.00;;;-2.10;99.90;;;;;;4805723;29;20147;-92
2022/03/08 06:11:16;;;;;;;31.13;17.20;;;;;;;;;;4805141;29;20373;-92
2022/03/08 06:13:43;;;;;;;30.73;18.43;;;;;;;;;;4804555;29;20055;-92
2022/03/08 06:16:08;;;;;;;29.23;18.10;;;-1.50;99.90;;;;;;4804406;29;20047;-92
2022/03/08 06:18:34;;;;;;;32.63;18.70;;;-1.20;99.90;;;;;;4805009;29;20057;-92
2022/03/08 06:21:00;;;;;;;30.20;18.03;;;-1.60;99.90;;;;;;4789294;29;20143;-92
2022/03/08 06:23:26;;;;;;;31.03;18.30;;;-1.70;99.90;;;;;;4803593;29;20066;-92
2022/03/08 06:25:52;;;;;;;37.47;19.20;;;;;;;;;;4805731;29;20129;-92
2022/03/08 06:28:17;;;;;;;31.93;19.17;;;-1.50;99.90;;;;;;4789861;29;20554;-92
2022/03/08 06:30:43;;;;;;;33.40;18.27;;;-2.00;99.90;;;;;;4808915;29;20062;-92
2022/03/08 06:33:10;;;;;;;36.90;18.40;;;1.00;99.90;;;;;;4808200;29;20140;-92
2022/03/08 06:35:36;;;;;;;29.83;17.63;;;-2.50;99.90;;;;;;4808369;29;20054;-92
2022/03/08 06:38:02;;;;;;;30.10;17.80;;;-2.80;99.90;;;;;;4824315;29;20057;-94
2022/03/08 06:40:28;;;;;;;37.40;21.00;;;-1.70;99.90;;;;;;4807932;29;20500;-94
2022/03/08 06:42:54;;;;;;;38.97;20.43;;;;;;;;;;4808478;29;20053;-94
2022/03/08 06:45:20;;;;;;;36.23;20.43;;;-1.20;99.90;;;;;;4808005;29;20074;-94
2022/03/08 06:47:45;;;;;;;38.07;20.20;;;-1.50;99.90;;;;;;4808489;29;20066;-92
2022/03/08 06:50:11;;;;;;;35.07;20.07;;;-1.20;99.90;;;;;;4824344;29;20050;-93
2022/03/08 06:52:37;;;;;;;42.80;20.33;;;;;;;;;;4793142;29;20440;-94
2022/03/08 06:55:04;;;;;;;33.20;20.73;;;-0.80;99.90;;;;;;4825160;29;20050;-93
2022/03/08 06:57:30;;;;;;;42.50;22.47;;;-0.60;99.90;;;;;;4824578;29;20050;-93
2022/03/08 06:59:56;;;;;;;36.23;19.70;;;-0.50;99.90;;;;;;4792291;29;20511;-94
2022/03/08 07:02:25;;;;;;;36.53;20.30;;;-0.70;99.90;;;;;;4824191;29;20141;-93
2022/03/08 07:04:51;;;;;;;31.60;20.13;;;-0.40;99.90;;;;;;4823152;29;20500;-95
2022/03/08 07:07:17;;;;;;;37.93;20.70;;;;;;;;;;4791259;29;20134;-93
2022/03/08 07:09:43;;;;;;;34.00;19.43;;;0.40;99.90;;;;;;4822522;29;20054;-93
2022/03/08 07:12:10;;;;;;;30.10;17.80;;;2.60;99.90;;;;;;4810326;29;20058;-94
2022/03/08 07:14:36;;;;;;;32.33;18.87;;;0.30;99.90;;;;;;4808461;29;20054;-94
2022/03/08 07:17:02;;;;;;;32.37;18.63;;;2.80;99.90;;;;;;4823760;29;20107;-93
2022/03/08 07:19:28;;;;;;;30.33;17.43;;;1.40;99.90;;;;;;4793377;29;20118;-92
2022/03/08 07:21:54;;;;;;;31.17;16.70;;;0.50;99.90;;;;;;4825321;29;20046;-93
2022/03/08 07:24:20;;;;;;;28.47;17.30;;;2.00;99.90;;;;;;4823576;29;20137;-94
2022/03/08 07:26:45;;;;;;;29.43;16.57;;;0.90;91.80;;;;;;4824624;29;20054;-95
2022/03/08 07:29:11;;;;;;;27.40;15.87;;;1.10;81.70;;;;;;4823782;29;20051;-94
2022/03/08 07:31:37;;;;;;;30.37;17.73;;;1.40;94.20;;;;;;4824500;29;20103;-94
2022/03/08 07:34:03;;;;;;;28.27;16.50;;;1.70;84.10;;;;;;4825026;29;20058;-94
2022/03/08 07:36:29;;;;;;;25.87;15.23;;;;;;;;;;4808417;29;20093;-94
2022/03/08 07:38:55;;;;;;;29.20;16.23;;;1.60;40.70;;;;;;4808541;29;20061;-93
2022/03/08 07:41:21;;;;;;;26.63;15.57;;;2.20;69.90;;;;;;4823675;29;20381;-94
2022/03/08 07:43:47;;;;;;;27.03;16.27;;;;;;;;;;4807763;29;20138;-94
2022/03/08 07:46:14;;;;;;;25.73;14.13;;;1.80;28.40;;;;;;4824174;29;20050;-93
2022/03/08 07:48:40;;;;;;;26.33;14.87;;;-0.60;54.00;;;;;;4793107;29;20077;-93
2022/03/08 07:51:06;;;;;;;23.40;13.57;;;1.70;41.10;;;;;;4808197;29;20150;-93
2022/03/08 07:53:31;;;;;;;32.97;15.30;;;2.50;40.30;;;;;;4806928;29;20057;-93
2022/03/08 07:55:57;;;;;;;25.65;15.23;;;2.10;21.80;;;;;;4822701;29;20137;-93
2022/03/08 07:58:23;;;;;;;27.23;14.40;;;;;;;;;;4790691;29;20133;-93
2022/03/08 08:00:49;;;;;;;25.07;13.93;;;2.30;6.60;;;;;;4821642;29;20443;-92
2022/03/08 08:03:15;;;;;;;24.63;13.67;;;2.20;9.10;;;;;;4790879;29;20054;-93
2022/03/08 08:05:41;;;;;;;22.63;13.47;;;2.80;1.00;;;;;;4805258;29;20052;-95
2022/03/08 08:08:07;;;;;;;22.20;12.90;;;;;;;;;;4806087;29;20038;-93
2022/03/08 08:10:33;;;;;;;22.83;13.30;;;2.80;1.00;;;;;;4805659;29;20110;-95
2022/03/08 08:13:00;;;;;;;27.50;14.33;;;2.80;1.00;;;;;;4806032;29;20133;-95
2022/03/08 08:15:26;;;;;;;24.77;12.97;;;5.50;1.00;;;;;;4821729;29;20061;-95
2022/03/08 08:17:52;;;;;;;25.67;12.87;;;4.90;1.00;;;;;;4821067;29;20134;-94
2022/03/08 08:20:21;;;;;;;19.15;11.48;;;;;;;;;;4792967;29;20058;-94
2022/03/08 08:22:47;;;;;;;20.25;10.60;;;;;;;;;;4809322;29;20140;-94
2022/03/08 08:25:13;;;;;;;18.77;9.67;;;7.30;1.00;;;;;;4826669;29;20064;-94
2022/03/08 08:27:41;;;;;;;19.63;10.05;;;8.10;1.00;;;;;;4794796;29;20062;-93
2022/03/08 08:30:11;;;;;;;23.33;9.85;;;9.00;1.00;;;;;;4826054;29;20519;-92
2022/03/08 08:32:43;;;;;;;16.77;9.82;;;9.70;1.00;;;;;;4810928;29;20126;-94
2022/03/08 08:35:09;;;;;;;14.98;9.15;;;11.20;1.00;;;;;;4825649;29;20046;-92
2022/03/08 08:37:35;;;;;;;17.05;9.52;;;12.00;1.00;;;;;;4794682;29;20520;-93
2022/03/08 08:40:03;;;;;;;16.20;9.32;;;11.30;1.00;;;;;;4794945;29;20141;-92
2022/03/08 08:42:29;;;;;;;17.38;8.70;;;10.90;1.00;;;;;;4826129;29;20154;-93
2022/03/08 08:44:55;;;;;;;16.65;9.25;;;11.00;1.00;;;;;;4810364;29;20487;-93
2022/03/08 08:47:23;;;;;;;16.48;8.70;;;11.40;1.00;;;;;;4825770;29;20047;-93
2022/03/08 08:49:49;;;;;;;18.80;9.23;;;10.80;1.00;;;;;;4810071;29;20061;-93
2022/03/08 08:52:17;;;;;;;14.73;7.78;;;10.90;1.00;;;;;;4809631;29;20057;-94
2022/03/08 08:54:46;;;;;;;16.10;9.20;;;;;;;;;;4793763;29;20428;-93
2022/03/08 08:57:12;;;;;;;15.02;8.38;;;11.50;1.00;;;;;;4808935;29;20322;-94
2022/03/08 08:59:37;;;;;;;18.25;9.18;;;12.20;1.00;;;;;;4809309;29;20058;-94
2022/03/08 09:02:03;;;;;;;14.65;8.32;;;12.80;1.00;;;;;;4810302;29;20396;-92
2022/03/08 09:04:29;;;;;;;15.43;8.65;;;13.30;1.00;;;;;;4825328;29;20050;-93
2022/03/08 09:06:55;;;;;;;15.90;9.32;;;13.50;1.00;;;;;;4794587;29;20055;-93
2022/03/08 09:09:21;;;;;;;18.13;9.30;;;14.00;1.00;;;;;;4794639;29;20154;-94
2022/03/08 09:11:53;;;;;;;18.23;8.07;;;13.70;1.00;;;;;;4810004;29;20368;-90
2022/03/08 09:14:24;;;;;;;16.40;8.40;;;13.10;1.00;;;;;;4794854;29;20121;-90
2022/03/08 09:20:42;;;;;;;16.58;8.20;;;12.60;1.00;;;;;;4825760;29;20535;-91
2022/03/08 09:23:15;;;;;;;18.20;8.77;;;14.50;1.00;;;;;;4795656;29;20119;-91
2022/03/08 09:25:41;;;;;;;13.95;8.00;;;13.60;1.00;;;;;;4808356;29;20142;-92
2022/03/08 09:28:07;;;;;;;15.02;8.43;;;14.30;1.00;;;;;;4823979;29;20520;-93
2022/03/08 09:30:35;;;;;;;14.98;8.50;;;12.60;1.00;;;;;;4792527;29;20172;-91
2022/03/08 09:33:01;;;;;;;15.82;8.35;;;;;;;;;;4823212;29;20126;-90
2022/03/08 09:35:28;;;;;;;15.73;7.95;;;12.70;1.00;;;;;;4824640;29;20082;-92
2022/03/08 09:37:56;;;;;;;15.03;8.47;;;12.60;1.00;;;;;;4808014;29;20074;-92
2022/03/08 09:40:23;;;;;;;15.55;8.25;;;14.40;1.00;;;;;;4793404;29;20338;-91
2022/03/08 09:42:49;;;;;;;13.93;7.70;;;13.20;1.00;;;;;;4808197;29;20576;-91
2022/03/08 09:45:17;;;;;;;14.10;8.00;;;14.30;1.00;;;;;;4807606;29;20070;-93
2022/03/08 09:47:43;;;;;;;12.52;7.38;;;14.20;1.00;;;;;;4824384;29;20081;-92
2022/03/08 09:50:12;;;;;;;15.20;7.32;;;14.00;1.00;;;;;;4824616;29;20468;-92
2022/03/08 09:52:39;;;;;;;14.00;7.53;;;14.80;1.00;;;;;;4809914;29;20058;-92
2022/03/08 09:55:25;;;;;;;11.40;6.50;;;14.70;1.00;;;;;;4795117;29;20054;-91
2022/03/08 09:57:53;;;;;;;16.33;7.50;;;14.30;1.00;;;;;;4794188;29;20054;-95
2022/03/08 10:00:22;;;;;;;11.25;5.97;;;13.10;1.00;;;;;;4793527;29;20062;-93
2022/03/08 10:02:51;;;;;;;12.40;5.63;;;13.00;1.00;;;;;;4808527;29;20113;-94
2022/03/08 10:05:24;;;;;;;12.13;6.50;;;13.30;1.00;;;;;;4793033;29;20053;-95
2022/03/08 10:08:10;;;;;;;10.80;5.82;;;12.90;1.00;;;;;;4793345;29;20095;-94
2022/03/08 10:11:03;;;;;;;12.23;6.35;;;13.00;1.00;;;;;;4824938;29;20087;-94
2022/03/08 10:13:40;;;;;;;11.18;5.95;;;13.20;1.00;;;;;;4792361;29;20054;-93
2022/03/08 10:16:11;;;;;;;13.57;5.93;;;13.40;1.00;;;;;;4806924;29;20141;-94
2022/03/08 10:18:47;;;;;;;11.30;6.00;;;12.50;99.90;;;;;;4808381;29;20046;-92
2022/03/08 10:21:29;;;;;;;12.07;6.22;;;11.50;1.00;;;;;;4807785;29;20084;-94
2022/03/08 10:24:12;;;;;;;11.32;6.03;;;10.80;1.00;;;;;;4791549;29;20122;-93
2022/03/08 10:26:59;;;;;;;14.75;6.55;;;11.00;1.00;;;;;;4807155;29;20514;-92
2022/03/08 10:29:36;;;;;;;13.70;6.20;;;9.40;1.00;;;;;;4792571;29;20054;-95
2022/03/08 10:32:16;;;;;;;14.68;4.95;;;9.40;1.00;;;;;;4807673;29;20061;-95
2022/03/08 10:34:43;;;;;;;14.65;6.35;;;9.50;1.00;;;;;;4794062;29;20562;-95
2022/03/08 10:37:19;;;;;;;11.25;5.60;;;9.50;1.00;;;;;;4807456;29;20062;-95
2022/03/08 10:39:54;;;;;;;13.15;6.20;;;10.10;1.00;;;;;;4808898;29;20478;-90
2022/03/08 10:42:28;;;;;;;14.70;5.50;;;9.30;1.00;;;;;;4824508;29;20065;-94
2022/03/08 10:45:12;;;;;;;11.38;5.47;;;9.70;1.00;;;;;;4794318;29;20054;-94
2022/03/08 10:47:52;;;;;;;11.05;5.78;;;9.80;1.00;;;;;;4809375;29;20538;-91
2022/03/08 10:50:23;;;;;;;12.50;5.85;;;10.00;99.90;;;;;;4824946;29;20165;-94
2022/03/08 10:52:55;;;;;;;12.57;5.45;;;10.00;1.00;;;;;;4807816;29;20058;-93
2022/03/08 10:55:38;;;;;;;10.55;5.22;;;11.40;1.00;;;;;;4808584;29;20050;-93
2022/03/08 10:58:12;;;;;;;13.40;5.40;;;9.60;1.00;;;;;;4808271;29;20054;-94
2022/03/08 11:00:53;;;;;;;12.63;5.88;;;9.60;99.90;;;;;;4808586;29;20050;-94
2022/03/08 11:03:21;;;;;;;10.63;5.38;;;11.50;1.00;;;;;;4793383;29;20126;-91
2022/03/08 11:05:48;;;;;;;;;;;9.80;1.00;;;;;;4794060;29;20103;-93
2022/03/08 11:08:15;;;;;;;11.32;5.25;;;10.40;1.00;;;;;;4823611;29;19925;-93
2022/03/08 11:10:42;;;;;;;12.25;5.57;;;10.00;1.00;;;;;;4793309;29;20057;-95
2022/03/08 11:13:09;;;;;;;10.68;5.40;;;10.50;1.00;;;;;;4808800;29;20482;-94
2022/03/08 11:15:40;;;;;;;11.25;5.68;;;11.90;99.90;;;;;;4793613;29;20042;-93
2022/03/08 11:18:09;;;;;;;12.05;5.40;;;11.90;1.00;;;;;;4811518;29;20054;-93
2022/03/08 11:20:39;;;;;;;10.45;5.05;;;12.10;99.90;;;;;;4824368;29;20047;-93
2022/03/08 11:23:05;;;;;;;10.55;5.35;;;12.10;99.90;;;;;;4808923;29;20150;-93
2022/03/08 11:25:37;;;;;;;10.65;5.20;;;11.70;1.00;;;;;;4794302;29;20117;-93
2022/03/08 11:28:05;;;;;;;11.77;4.72;;;12.20;99.90;;;;;;4793360;29;20488;-94
2022/03/08 11:30:34;;;;;;;10.48;4.80;;;12.20;99.90;;;;;;4793917;29;20119;-94
2022/03/08 11:33:27;;;;;;;12.60;5.20;;;12.30;99.90;;;;;;4809086;29;20198;-95
2022/03/08 11:35:58;;;;;;;9.27;4.47;;;12.10;99.90;;;;;;4793995;29;20046;-92
2022/03/08 11:38:24;;;;;;;11.73;4.90;;;11.90;1.00;;;;;;4809970;29;20058;-94
2022/03/08 11:40:59;;;;;;;11.07;4.95;;;9.10;99.90;;;;;;4819389;29;20070;-96
2022/03/08 11:43:38;;;;;;;9.40;4.80;;;11.70;1.00;;;;;;4808489;29;20057;-91
2022/03/08 11:46:12;;;;;;;10.25;4.90;;;12.60;99.90;;;;;;4808073;29;20062;-94
2022/03/08 11:49:04;;;;;;;15.00;5.68;;;12.50;99.90;;;;;;4795534;29;20050;-95
2022/03/08 11:52:01;;;;;;;13.27;4.93;;;11.60;1.00;;;;;;4815035;29;20046;-94
2022/03/08 11:54:35;;;;;;;10.30;5.30;;;12.10;1.00;;;;;;4782642;29;20148;-95
2022/03/08 11:57:17;;;;;;;10.00;5.10;;;11.20;1.00;;;;;;5049801;24;20029;-93
2022/03/08 12:00:18;;;;;;;10.60;5.38;;;11.40;1.00;;;;;;4782427;29;20048;-92
2022/03/08 12:02:58;;;;;;;11.95;5.60;;;11.20;99.90;;;;;;4781019;30;20051;-93
2022/03/08 12:05:51;;;;;;;10.00;5.05;;;11.70;99.90;;;;;;4780155;29;20043;-95
2022/03/08 12:08:45;;;;;;;11.38;5.28;;;10.60;1.00;;;;;;4787429;29;20086;-94
2022/03/08 12:11:29;;;;;;;9.50;5.05;;;11.80;1.00;;;;;;4775436;30;20071;-94
2022/03/08 12:14:27;;;;;;;9.73;4.43;;;12.00;1.00;;;;;;4775887;30;20130;-92
2022/03/08 12:17:18;;;;;;;12.52;5.57;;;13.40;1.00;;;;;;4775845;30;20479;-93
2022/03/08 12:19:58;;;;;;;12.25;5.10;;;12.30;99.90;;;;;;4778071;30;20492;-93
2022/03/08 12:22:40;;;;;;;13.20;5.43;;;10.70;1.00;;;;;;4765164;30;20534;-92
2022/03/08 12:25:16;;;;;;;13.20;6.05;;;9.50;1.00;;;;;;4763295;30;20090;-94
2022/03/08 12:27:53;;;;;;;9.25;4.90;;;9.70;1.00;;;;;;4745882;29;20134;-93
2022/03/08 12:30:41;;;;;;;17.35;5.38;;;8.00;1.00;;;;;;4760905;29;20084;-96
2022/03/08 12:33:12;;;;;;;10.63;5.03;;;10.50;1.00;;;;;;4790907;29;20097;-95
2022/03/08 12:35:53;;;;;;;10.20;5.10;;;8.50;1.00;;;;;;4786445;29;20054;-96
2022/03/08 12:38:19;;;;;;;11.05;5.35;;;9.00;1.00;;;;;;4795810;29;20129;-95
2022/03/08 12:40:50;;;;;;;13.32;6.05;;;9.20;1.00;;;;;;4790526;29;20131;-94
2022/03/08 12:43:16;;;;;;;12.05;5.82;;;9.40;1.00;;;;;;4809680;29;20208;-94
2022/03/08 12:45:47;;;;;;;13.55;5.85;;;9.30;1.00;;;;;;4806189;29;20207;-96
2022/03/08 12:48:21;;;;;;;10.38;5.63;;;9.40;1.00;;;;;;4793521;29;20464;-94
2022/03/08 12:50:56;;;;;;;12.65;5.35;;;9.50;1.00;;;;;;4795445;29;20085;-95
2022/03/08 12:53:28;;;;;;;12.10;6.10;;;9.90;1.00;;;;;;4795618;29;20042;-95
2022/03/08 12:55:57;;;;;;;12.98;5.65;;;9.70;1.00;;;;;;4807346;29;20172;-96
2022/03/08 12:58:28;;;;;;;11.98;5.72;;;9.80;1.00;;;;;;4797056;29;20068;-95
2022/03/08 13:01:05;;;;;;;11.70;5.75;;;10.20;1.00;;;;;;4794729;29;20050;-96